Leon, New York
Current Conditions -  °F | °C
As of 1:35 AM on Wednesday 28 Jan 2015 (Local Time) from KJHW Reporting Station
Clear Clear  
Wind Chill:   Ceiling: Unl
Heat Index:   Visibility: 10mi
Dew Point:   Wind: 5mph
Humidity: 79%   Direction: 320°NW
Pressure: 30.04"   Gusts: NA
Location:  42.29°N, 79.02°W
Report Text: KJHW 280635Z 32004KT 10SM CLR M13/M16 A3004 RMK AO1
Loading
Personal Weather Stations






























Interactive Weather Map New forecast layout! Learn more

10-Day Weather Forecast

Advertisements
Track Severe Weather on mobile